Terminal Aerodrome Forecast
Issued by NWS

Home | Current Version | Previous Version | Text Only | Print | Product List | Glossary Off
Versions: 1 2 3 4 5 6 7 8 9 10 11 12 13 14 15 16 17

000
FTUS43 KGRB 251726
TAFRHI
TAF
KRHI 251726Z 2518/2618 31006KT P6SM SCT045
     FM252300 28005KT P6SM SKC
     FM260200 00000KT P6SM SKC
      TEMPO 2608/2612 4SM BR
     FM261400 24006KT P6SM FEW035=

USA.gov is the U.S. government's official web portal to all federal, state and local government web resources and services.